Time;durP1;ratioP1;P1;durP2;ratioP2;P2;SDS_P1;SDS_P2;PMS_P1;PMS_P2;Temp;Humidity;BMP_temperature;BMP_pressure;BME280_temperature;BME280_humidity;BME280_pressure;Samples;Min_cycle;Max_cycle;Signal;HPM_P1;HPM_P2
2022/06/21 00:02:06;;;;;;;5.62;4.75;;;;;;;23.23;63.31;97951.61;1692871;84;21070;-65
2022/06/21 00:04:33;;;;;;;6.80;4.15;;;;;;;23.16;63.64;97955.19;1693392;84;21164;-66
2022/06/21 00:07:02;;;;;;;5.70;4.28;;;;;;;23.12;63.97;97958.23;1693422;84;20966;-69
2022/06/21 00:09:29;;;;;;;10.93;4.40;;;;;;;23.07;64.37;97963.14;1692792;84;20859;-66
2022/06/21 00:11:57;;;;;;;8.85;4.37;;;;;;;23.05;64.63;97961.81;1692116;84;21007;-67
2022/06/21 00:14:23;;;;;;;6.33;3.70;;;;;;;23.03;64.94;97955.87;1698181;84;20947;-66
2022/06/21 00:16:50;;;;;;;6.05;3.87;;;;;;;23.01;65.18;97962.13;1697012;84;21103;-66
2022/06/21 00:19:21;;;;;;;9.43;4.28;;;;;;;23.00;65.40;97963.22;1693102;84;21009;-66
2022/06/21 00:21:48;;;;;;;8.45;4.30;;;;;;;22.98;65.60;97962.16;1691302;84;20972;-69
2022/06/21 00:24:18;;;;;;;6.55;4.55;;;;;;;22.96;65.77;97949.44;1692910;83;20971;-68
2022/06/21 00:26:46;;;;;;;7.45;3.70;;;;;;;22.93;65.93;97949.20;1666307;84;21021;-69
2022/06/21 00:29:15;;;;;;;11.73;4.25;;;;;;;22.90;66.06;97949.77;1693461;84;20990;-67
2022/06/21 00:31:47;;;;;;;7.70;4.25;;;;;;;22.84;66.27;97952.28;1692416;83;21013;-68
2022/06/21 00:34:19;;;;;;;12.13;4.50;;;;;;;22.79;66.49;97943.63;1667246;84;21497;-67
2022/06/21 00:36:48;;;;;;;4.75;3.83;;;;;;;22.74;66.69;97940.97;1668439;84;21019;-70
2022/06/21 00:39:17;;;;;;;7.55;3.70;;;;;;;22.72;66.84;97936.38;1669133;85;21054;-67
2022/06/21 00:41:55;;;;;;;7.15;3.95;;;;;;;22.72;66.92;97940.45;1625616;87;22251;-68
2022/06/21 00:44:35;;;;;;;5.35;4.25;;;;;;;22.67;67.06;97931.83;1636165;87;21620;-69
2022/06/21 00:47:19;;;;;;;6.75;4.05;;;;;;;22.65;67.19;97935.37;1618503;87;20955;-69
2022/06/21 00:49:58;;;;;;;8.48;3.90;;;;;;;22.63;67.32;97931.33;1636106;87;20975;-68
2022/06/21 00:52:50;;;;;;;8.03;4.20;;;;;;;22.60;67.46;97912.89;1635314;87;21063;-69
2022/06/21 00:55:25;;;;;;;8.08;4.28;;;;;;;22.61;67.55;97900.41;1636172;87;21172;-69
2022/06/21 00:57:54;;;;;;;6.90;3.55;;;;;;;22.62;67.58;97908.84;1636122;87;20998;-68
2022/06/21 01:00:36;;;;;;;5.60;4.03;;;;;;;22.63;67.64;97903.66;1635130;87;20995;-69
2022/06/21 01:03:10;;;;;;;8.73;4.10;;;;;;;22.63;67.65;97904.23;1633291;86;21434;-67
2022/06/21 01:05:39;;;;;;;7.67;4.28;;;;;;;22.63;67.75;97904.23;1635925;87;20930;-67
2022/06/21 01:08:08;;;;;;;5.03;3.90;;;;;;;22.64;67.82;97899.87;1636117;87;21317;-67
2022/06/21 01:10:35;;;;;;;5.70;3.98;;;;;;;22.68;67.78;97899.55;1635271;87;20923;-67
2022/06/21 01:13:07;;;;;;;4.75;4.00;;;;;;;22.71;67.73;97898.98;1636179;87;21040;-68
2022/06/21 01:15:38;;;;;;;5.42;4.45;;;;;;;22.71;67.78;97892.74;1620325;86;20991;-68
2022/06/21 01:18:06;;;;;;;9.63;4.35;;;;;;;22.71;67.86;97890.03;1636177;87;21033;-68
2022/06/21 01:20:38;;;;;;;6.22;4.20;;;;;;;22.68;68.00;97891.41;1635133;87;21120;-69
2022/06/21 01:23:28;;;;;;;5.10;4.60;;;;;;;22.68;68.16;97894.70;1631717;87;20907;-68
2022/06/21 01:26:38;;;;;;;8.45;4.50;;;;;;;22.69;68.34;97895.75;1624897;88;21030;-67
2022/06/21 01:29:09;;;;;;;8.03;4.37;;;;;;;22.71;68.47;97884.61;1636055;87;21581;-67
2022/06/21 01:31:36;;;;;;;5.08;4.17;;;;;;;22.74;68.58;97885.40;1635105;87;20903;-71
2022/06/21 01:34:02;;;;;;;8.08;4.10;;;;;;;22.74;68.65;97886.21;1636115;87;21202;-67
2022/06/21 01:36:33;;;;;;;6.83;4.67;;;;;;;22.74;68.74;97888.11;1636123;87;20940;-67
2022/06/21 01:39:10;;;;;;;10.32;4.42;;;;;;;22.73;68.80;97894.07;1636113;87;21048;-66
2022/06/21 01:41:47;;;;;;;8.00;4.37;;;;;;;22.72;68.90;97894.38;1640926;85;21502;-66
2022/06/21 01:44:18;;;;;;;4.30;3.90;;;;;;;22.73;68.93;97896.78;1633396;86;20958;-67
2022/06/21 01:46:45;;;;;;;8.63;5.12;;;;;;;22.75;68.92;97891.09;1626064;86;21349;-67
2022/06/21 01:49:16;;;;;;;8.45;4.75;;;;;;;22.78;68.87;97891.88;1641938;86;20943;-67
2022/06/21 01:51:47;;;;;;;6.25;4.67;;;;;;;22.80;68.85;97891.04;1641310;86;21075;-66
2022/06/21 01:54:16;;;;;;;6.95;4.97;;;;;;;22.83;68.77;97890.47;1637446;86;21049;-67
2022/06/21 01:56:42;;;;;;;10.68;4.95;;;;;;;22.88;68.70;97903.16;1654174;86;21521;-66
2022/06/21 01:59:15;;;;;;;8.93;4.92;;;;;;;22.92;68.63;97904.19;1654371;86;21411;-67
2022/06/21 02:01:59;;;;;;;7.83;5.62;;;;;;;22.92;68.63;97905.00;1652866;86;21003;-66
2022/06/21 02:04:28;;;;;;;6.03;5.25;;;;;;;22.94;68.62;97902.83;1654375;86;20956;-67
2022/06/21 02:06:54;;;;;;;7.25;5.50;;;;;;;22.92;68.65;97901.47;1627747;86;20979;-66
2022/06/21 02:09:28;;;;;;;7.20;5.95;;;;;;;22.91;68.73;97887.13;1653781;86;21147;-64
2022/06/21 02:12:11;;;;;;;12.15;6.67;;;;;;;22.90;68.78;97882.80;1637889;86;21160;-67
2022/06/21 02:14:47;;;;;;;7.55;6.25;;;;;;;22.92;68.74;97884.66;1654122;86;21438;-67
2022/06/21 02:17:26;;;;;;;9.43;6.40;;;;;;;22.92;68.69;97887.91;1654325;86;20967;-67
2022/06/21 02:20:23;;;;;;;8.23;6.75;;;;;;;22.92;68.78;97894.16;1638715;86;21031;-65
2022/06/21 02:22:49;;;;;;;10.17;6.13;;;;;;;22.92;68.87;97890.09;1649802;86;21014;-69
2022/06/21 02:25:22;;;;;;;12.85;5.72;;;;;;;22.94;68.96;97894.70;1654300;86;21317;-68
2022/06/21 02:27:50;;;;;;;8.20;4.90;;;;;;;22.97;69.01;97896.81;1653991;86;20948;-68
2022/06/21 02:30:24;;;;;;;5.60;4.80;;;;;;;22.99;68.61;97897.35;1652813;86;21067;-69
2022/06/21 02:32:52;;;;;;;8.25;3.95;;;;;;;23.03;68.32;97895.67;1654367;86;21497;-67
2022/06/21 02:35:26;;;;;;;7.15;3.77;;;;;;;23.07;67.99;97898.05;1654353;86;20927;-68
2022/06/21 02:37:56;;;;;;;3.72;3.02;;;;;;;23.09;67.69;97894.52;1654277;86;21170;-69
2022/06/21 02:40:30;;;;;;;9.20;3.50;;;;;;;23.11;67.29;97892.32;1653030;86;20959;-68
2022/06/21 02:43:08;;;;;;;6.10;3.40;;;;;;;23.12;67.08;97893.95;1643283;85;20992;-69
2022/06/21 02:45:46;;;;;;;4.92;3.00;;;;;;;23.15;66.97;97893.92;1652723;86;21076;-71
2022/06/21 02:48:17;;;;;;;4.65;3.37;;;;;;;23.19;66.91;97891.69;1652845;86;20975;-67
2022/06/21 02:50:53;;;;;;;6.97;3.30;;;;;;;;;;1647151;86;21283;-67
2022/06/21 02:53:27;;;;;;;9.08;3.70;;;;;;;23.24;66.57;97888.91;1669997;84;21512;-68
2022/06/21 02:55:59;;;;;;;6.55;3.77;;;;;;;23.26;66.48;97888.61;1652964;86;21526;-67
2022/06/21 02:58:34;;;;;;;10.32;3.95;;;;;;;23.26;66.39;97890.78;1625340;88;21087;-69
2022/06/21 03:01:05;;;;;;;8.40;3.13;;;;;;;23.27;66.29;97884.27;1662289;84;21436;-68
2022/06/21 03:03:31;;;;;;;4.78;3.15;;;;;;;23.29;66.28;97890.75;1659796;86;21139;-67
2022/06/21 03:06:00;;;;;;;6.40;3.27;;;;;;;23.30;66.50;97885.59;1659761;86;21454;-68
2022/06/21 03:08:31;;;;;;;4.67;3.37;;;;;;;23.31;66.93;97892.07;1659844;86;20959;-69
2022/06/21 03:10:57;;;;;;;6.20;3.55;;;;;;;23.29;67.50;97891.56;1658774;86;20954;-68
2022/06/21 03:13:28;;;;;;;4.30;3.62;;;;;;;23.28;67.97;97895.36;1659801;86;20954;-68
2022/06/21 03:16:02;;;;;;;8.48;3.65;;;;;;;23.22;68.50;97882.98;1641365;86;21234;-68
2022/06/21 03:18:38;;;;;;;6.50;3.60;;;;;;;23.18;69.27;97877.86;1660236;86;20944;-66
2022/06/21 03:21:06;;;;;;;6.25;3.65;;;;;;;23.17;69.84;97864.05;1658592;86;20974;-67
2022/06/21 03:23:33;;;;;;;6.10;4.20;;;;;;;23.16;70.25;97855.64;1659863;85;20951;-67
2022/06/21 03:26:01;;;;;;;5.75;3.65;;;;;;;23.16;70.54;97859.72;1642582;86;20904;-69
2022/06/21 03:28:41;;;;;;;7.03;3.92;;;;;;;23.16;70.95;97862.97;1659852;86;21266;-66
2022/06/21 03:31:26;;;;;;;6.83;3.98;;;;;;;23.15;71.24;97855.38;1658888;86;20891;-67
2022/06/21 03:33:55;;;;;;;6.28;4.05;;;;;;;23.11;71.19;97847.57;1659702;85;20955;-66
2022/06/21 03:36:24;;;;;;;5.22;4.55;;;;;;;23.15;71.41;97854.59;1659783;85;21046;-70
2022/06/21 03:38:57;;;;;;;7.30;5.40;;;;;;;23.13;71.55;97855.41;1659818;86;21034;-67
2022/06/21 03:44:27;;;;;;;6.20;4.37;;;;;;;23.12;72.11;97848.39;1683372;84;20893;-68
2022/06/21 03:47:17;;;;;;;8.10;5.30;;;;;;;23.09;72.21;97853.84;1692223;84;21010;-69
2022/06/21 03:49:54;;;;;;;8.45;4.37;;;;;;;23.10;72.36;97862.79;1683675;85;21002;-69
2022/06/21 03:52:41;;;;;;;6.08;4.55;;;;;;;23.09;72.55;97867.95;1683350;84;20989;-69
2022/06/21 03:55:14;;;;;;;7.03;4.28;;;;;;;23.10;72.48;97873.64;1683584;83;21121;-67
2022/06/21 03:57:46;;;;;;;8.10;4.72;;;;;;;23.08;72.48;97873.91;1677073;85;21042;-69
2022/06/21 04:00:13;;;;;;;5.92;4.60;;;;;;;23.07;72.63;97871.50;1683619;85;20995;-66
2022/06/21 04:02:52;;;;;;;6.95;4.53;;;;;;;23.09;72.90;97876.08;1683229;84;20959;-66
2022/06/21 04:05:41;;;;;;;8.28;7.45;;;;;;;23.20;72.98;97879.72;1683174;83;20959;-69
2022/06/21 04:08:38;;;;;;;8.63;6.28;;;;;;;23.45;72.74;97895.47;1663765;85;21104;-67
2022/06/21 04:11:16;;;;;;;8.28;5.25;;;;;;;23.92;71.71;97898.89;1676187;84;28060;-70
2022/06/21 04:14:04;;;;;;;5.67;5.00;;;;;;;24.18;70.65;97895.27;1678869;84;20899;-67
2022/06/21 04:16:38;;;;;;;8.30;4.62;;;;;;;24.27;69.70;97887.26;1683635;85;20944;-69
2022/06/21 04:19:17;;;;;;;6.40;5.17;;;;;;;24.29;69.16;97868.74;1683868;85;21016;-71
2022/06/21 04:21:50;;;;;;;7.40;4.87;;;;;;;24.29;68.54;97871.45;1667366;84;21243;-68
2022/06/21 04:24:25;;;;;;;6.35;5.33;;;;;;;24.23;68.07;97869.38;1683573;85;21018;-67
2022/06/21 04:27:13;;;;;;;5.70;5.07;;;;;;;24.20;67.86;97859.09;1683996;85;21052;-67
2022/06/21 04:29:56;;;;;;;5.92;5.33;;;;;;;24.13;68.41;97853.23;1666511;85;21436;-67
2022/06/21 04:32:30;;;;;;;5.42;4.92;;;;;;;24.12;67.72;97877.97;1682750;83;21030;-67
2022/06/21 04:35:08;;;;;;;9.00;6.12;;;;;;;24.05;67.83;97876.97;1683690;85;22060;-69
2022/06/21 04:38:05;;;;;;;8.68;5.78;;;;;;;23.97;68.19;97888.50;1683092;85;20991;-70
2022/06/21 04:40:43;;;;;;;5.45;4.95;;;;;;;23.89;68.47;97876.94;1683838;83;20947;-69
2022/06/21 04:43:17;;;;;;;9.23;8.33;;;;;;;23.79;68.79;97889.30;1678549;84;21015;-66
2022/06/21 04:45:55;;;;;;;8.60;7.80;;;;;;;23.73;69.09;97899.97;1661421;84;21574;-69
2022/06/21 04:48:52;;;;;;;10.25;7.30;;;;;;;23.67;69.58;97903.30;1661255;84;21877;-67
2022/06/21 04:51:43;;;;;;;6.53;5.92;;;;;;;23.57;70.16;97914.30;1662327;84;21554;-66
2022/06/21 04:54:27;;;;;;;7.60;6.80;;;;;;;23.45;70.71;97917.17;1647282;84;20973;-67
2022/06/21 04:57:16;;;;;;;6.35;5.85;;;;;;;23.35;71.07;97921.62;1661297;84;21530;-68
2022/06/21 04:59:46;;;;;;;7.40;6.70;;;;;;;23.32;71.33;97928.16;1661144;84;20952;-66
2022/06/21 05:02:18;;;;;;;7.08;6.22;;;;;;;23.28;71.55;97923.06;1669557;84;21217;-68
2022/06/21 05:04:45;;;;;;;7.70;6.42;;;;;;;23.23;71.97;97922.55;1661277;84;20941;-70
2022/06/21 05:07:15;;;;;;;7.92;7.20;;;;;;;23.18;72.24;97915.83;1677712;84;21008;-67
2022/06/21 05:09:42;;;;;;;7.65;6.87;;;;;;;23.16;72.63;97854.83;1661510;84;21003;-68
2022/06/21 05:12:31;;;;;;;8.95;6.80;;;;;;;23.12;72.70;97874.16;1663871;84;21013;-67
2022/06/21 05:15:06;;;;;;;7.22;6.55;;;;;;;23.10;72.61;97887.98;1669237;84;22084;-68
2022/06/21 05:17:35;;;;;;;7.08;6.33;;;;;;;23.06;72.77;97897.00;1680199;84;20917;-67
2022/06/21 05:20:06;;;;;;;7.10;6.05;;;;;;;23.05;73.10;97900.79;1661186;84;20936;-67
2022/06/21 05:22:37;;;;;;;8.50;6.20;;;;;;;23.06;73.21;97905.13;1662058;84;21068;-66
2022/06/21 05:25:09;;;;;;;7.05;6.45;;;;;;;23.06;73.12;97904.59;1643872;85;21020;-68
2022/06/21 05:27:47;;;;;;;6.37;5.87;;;;;;;23.07;73.17;97901.33;1641951;86;21254;-70
2022/06/21 05:30:22;;;;;;;6.85;5.78;;;;;;;23.08;72.68;97908.36;1661066;86;20924;-67
2022/06/21 05:32:53;;;;;;;5.92;5.40;;;;;;;23.03;72.01;97911.13;1663320;85;21024;-67
2022/06/21 05:35:27;;;;;;;5.15;4.75;;;;;;;22.98;71.90;97914.70;1665285;84;20952;-67
2022/06/21 05:38:07;;;;;;;5.60;4.92;;;;;;;22.91;71.58;97908.01;1667003;84;21484;-67
2022/06/21 05:40:52;;;;;;;5.22;4.28;;;;;;;22.79;71.65;97908.39;1675821;84;21312;-67
2022/06/21 05:43:32;;;;;;;5.67;4.25;;;;;;;22.66;71.62;97914.48;1669282;84;21000;-64
2022/06/21 05:46:08;;;;;;;4.55;4.05;;;;;;;22.55;71.65;97926.49;1669027;84;20976;-64
2022/06/21 05:48:35;;;;;;;3.60;3.30;;;;;;;22.33;72.65;97947.25;1641603;86;21533;-62
2022/06/21 05:51:03;;;;;;;3.80;3.40;;;;;;;22.33;72.65;97947.25;1688629;83;21066;-63
2022/06/21 05:53:37;;;;;;;3.42;3.05;;;;;;;22.25;72.76;97961.39;1673278;83;22021;-67
2022/06/21 05:56:08;;;;;;;4.47;3.12;;;;;;;22.15;72.92;97969.59;1668509;86;21000;-66
2022/06/21 05:58:46;;;;;;;3.10;2.80;;;;;;;22.05;73.33;97966.95;1668621;86;21512;-66
2022/06/21 06:01:27;;;;;;;5.53;2.92;;;;;;;21.94;73.59;97978.38;1668133;85;21075;-64
2022/06/21 06:04:35;;;;;;;4.62;3.27;;;;;;;21.85;74.13;97985.95;1672285;84;21128;-64
2022/06/21 06:07:02;;;;;;;3.60;2.60;;;;;;;21.77;74.31;97996.82;1668261;85;21218;-65
2022/06/21 06:09:34;;;;;;;4.33;2.83;;;;;;;21.62;75.02;97991.48;1667715;86;21097;-65
2022/06/21 06:12:09;;;;;;;4.15;2.95;;;;;;;21.38;75.18;97989.13;1668031;86;20992;-66
2022/06/21 06:15:01;;;;;;;2.55;2.30;;;;;;;21.38;75.18;97989.13;1668364;85;21538;-63
2022/06/21 06:18:11;;;;;;;6.00;2.50;;;;;;;21.26;74.91;97985.38;1668194;86;21019;-68
2022/06/21 06:20:58;;;;;;;3.72;2.45;;;;;;;21.16;75.23;97997.58;1668100;85;21344;-65
2022/06/21 06:23:50;;;;;;;3.40;2.62;;;;;;;21.09;75.47;98001.09;1668051;86;20997;-68
2022/06/21 06:26:25;;;;;;;4.17;2.08;;;;;;;21.04;75.74;98000.28;1668151;86;21046;-72
2022/06/21 06:29:04;;;;;;;2.27;1.77;;;;;;;20.97;75.71;97999.19;1667948;85;21088;-74
2022/06/21 06:31:51;;;;;;;2.85;1.67;;;;;;;20.87;75.71;98008.67;1668496;86;21084;-68
2022/06/21 06:34:22;;;;;;;8.63;2.25;;;;;;;20.84;76.28;98014.08;1668613;85;21106;-67
2022/06/21 06:37:10;;;;;;;2.10;1.52;;;;;;;20.83;76.82;98023.81;1668027;86;20945;-69
2022/06/21 06:39:37;;;;;;;1.82;1.65;;;;;;;20.82;76.47;98018.95;1661269;84;21099;-68
2022/06/21 06:42:14;;;;;;;1.98;1.60;;;;;;;20.77;75.66;98018.95;1669110;83;21110;-67
2022/06/21 06:44:46;;;;;;;1.55;1.37;;;;;;;20.64;75.43;98022.19;1666833;84;21603;-66
2022/06/21 06:47:20;;;;;;;2.20;1.82;;;;;;;20.57;75.66;98017.57;1681783;83;21151;-66
2022/06/21 06:49:59;;;;;;;1.70;1.42;;;;;;;20.54;75.77;98023.54;1679221;83;20961;-68
2022/06/21 06:52:36;;;;;;;2.10;1.65;;;;;;;20.54;75.87;98017.31;1666304;83;20967;-69
2022/06/21 06:55:35;;;;;;;1.75;1.65;;;;;;;20.52;75.11;98020.27;1682451;83;20985;-67
2022/06/21 06:58:13;;;;;;;4.62;1.70;;;;;;;20.47;74.81;98039.17;1682028;83;21000;-68
2022/06/21 07:00:47;;;;;;;2.35;1.85;;;;;;;20.39;74.50;98045.66;1682509;83;21446;-67
2022/06/21 07:03:21;;;;;;;2.10;1.70;;;;;;;20.31;74.16;98050.49;1681874;83;21560;-68
2022/06/21 07:06:08;;;;;;;2.42;2.22;;;;;;;20.25;74.08;98056.98;1666983;84;20996;-67
2022/06/21 07:08:58;;;;;;;;;;;;;;;20.18;74.63;98055.02;1684208;83;21063;-65
2022/06/21 07:11:33;;;;;;;2.00;1.90;;;;;;;20.15;75.41;98041.26;1682423;83;20090;-64
2022/06/21 07:13:59;;;;;;;2.10;1.90;;;;;;;20.14;74.91;98040.97;1678276;83;21278;-68
2022/06/21 07:16:26;;;;;;;1.80;1.70;;;;;;;20.12;74.46;98047.19;1662021;83;21062;-67
2022/06/21 07:18:55;;;;;;;2.85;1.62;;;;;;;20.08;73.90;98048.77;1682548;83;20996;-66
2022/06/21 07:21:22;;;;;;;2.00;1.90;;;;;;;20.03;73.66;98064.95;1682423;83;20951;-66
2022/06/21 07:23:48;;;;;;;3.12;1.95;;;;;;;19.99;73.89;98063.34;1681610;83;21079;-65
2022/06/21 07:26:32;;;;;;;4.20;1.95;;;;;;;19.94;74.26;98055.76;1681958;83;22154;-68
2022/06/21 07:29:12;;;;;;;2.30;2.05;;;;;;;19.91;74.06;98048.19;1682564;84;20904;-66
2022/06/21 07:31:43;;;;;;;2.20;2.10;;;;;;;19.85;73.59;98051.93;1682230;84;20908;-67
2022/06/21 07:34:30;;;;;;;2.95;1.90;;;;;;;19.79;73.61;98059.75;1682118;84;20959;-72
2022/06/21 07:37:08;;;;;;;2.08;1.95;;;;;;;19.73;73.58;98070.23;1667928;84;21446;-66
2022/06/21 07:39:55;;;;;;;3.10;2.30;;;;;;;19.67;73.81;98072.09;1682097;84;21533;-67
2022/06/21 07:42:30;;;;;;;2.98;2.20;;;;;;;19.66;74.21;98064.53;1682164;84;21043;-68
2022/06/21 07:45:07;;;;;;;2.85;2.10;;;;;;;19.71;74.36;98070.48;1682142;84;21459;-66
2022/06/21 07:47:50;;;;;;;3.00;1.90;;;;;;;19.79;74.18;98073.24;1682111;84;21481;-67
2022/06/21 07:50:25;;;;;;;1.87;1.77;;;;;;;19.94;73.85;98067.91;1682247;84;20963;-66
2022/06/21 07:52:57;;;;;;;1.92;1.82;;;;;;;20.08;73.82;98063.09;1681945;84;21155;-67
2022/06/21 07:55:40;;;;;;;2.25;2.05;;;;;;;20.26;73.17;98059.11;1682230;84;20940;-66
2022/06/21 07:58:23;;;;;;;1.72;1.62;;;;;;;20.48;72.08;98046.21;1662175;84;20908;-69
2022/06/21 08:06:42;;;;;;;2.27;1.98;;;;;;;20.80;69.24;98080.57;1682382;84;21442;-67
2022/06/21 08:09:14;;;;;;;2.02;1.42;;;;;;;20.81;69.76;98088.11;1649561;85;20944;-67
2022/06/21 08:11:43;;;;;;;2.22;1.40;;;;;;;20.88;69.16;98065.70;1682037;84;21462;-67
2022/06/21 08:14:10;;;;;;;2.65;1.22;;;;;;;20.87;68.45;98045.97;1682086;84;20884;-69
2022/06/21 08:16:44;;;;;;;1.00;1.00;;;;;;;20.84;67.49;98026.23;1682150;84;20872;-67
2022/06/21 08:19:29;;;;;;;1.60;1.20;;;;;;;20.85;67.21;98019.77;1682084;84;21270;-66
2022/06/21 08:22:14;;;;;;;1.27;1.17;;;;;;;21.03;66.20;98040.55;1626953;87;21009;-67
2022/06/21 08:24:54;;;;;;;1.25;1.15;;;;;;;21.43;65.20;98054.06;1675195;85;20944;-67
2022/06/21 08:27:44;;;;;;;4.55;1.15;;;;;;;21.60;64.19;98068.07;1681155;84;21064;-67
2022/06/21 08:30:21;;;;;;;3.47;1.20;;;;;;;21.57;64.34;98087.55;1682181;84;21445;-68
2022/06/21 08:33:02;;;;;;;2.20;1.12;;;;;;;21.46;64.22;98108.41;1681544;84;21342;-69
2022/06/21 08:35:34;;;;;;;1.47;1.37;;;;;;;21.26;62.97;98121.14;1662152;85;20872;-71
2022/06/21 08:38:24;;;;;;;2.60;1.42;;;;;;;21.01;63.27;98125.17;1682267;84;20952;-68
2022/06/21 08:44:20;;;;;;;2.30;1.32;;;;;;;20.68;64.01;98093.51;1674807;83;21007;-67
2022/06/21 08:47:45;;;;;;;2.52;1.32;;;;;;;20.51;64.87;98078.09;1650630;86;22664;-67
2022/06/21 08:50:36;;;;;;;1.52;1.30;;;;;;;20.48;64.66;98083.21;1685903;85;21058;-66
2022/06/21 08:53:20;;;;;;;1.62;1.52;;;;;;;20.56;64.63;98104.30;1668682;86;20980;-67
2022/06/21 08:55:55;;;;;;;1.55;1.45;;;;;;;20.73;64.96;98096.75;1668731;86;21501;-68
2022/06/21 08:58:48;;;;;;;3.90;1.27;;;;;;;20.86;64.39;98086.77;1668767;85;21561;-67
2022/06/21 09:01:21;;;;;;;1.65;1.30;;;;;;;20.96;63.40;98081.39;1668322;86;21169;-67
2022/06/21 09:04:29;;;;;;;3.02;1.62;;;;;;;20.98;62.08;98093.27;1668628;86;21070;-70
2022/06/21 09:07:15;;;;;;;1.57;1.30;;;;;;;21.04;61.53;98099.75;1661925;85;20960;-69
2022/06/21 09:10:08;;;;;;;1.37;1.20;;;;;;;21.28;61.88;98093.28;1653463;86;21000;-68
2022/06/21 09:13:09;;;;;;;3.22;1.40;;;;;;;21.54;60.45;98092.16;1668794;85;21506;-66
2022/06/21 09:16:09;;;;;;;1.55;1.30;;;;;;;21.95;58.78;98084.21;1668453;86;21169;-68
2022/06/21 09:18:55;;;;;;;1.50;1.40;;;;;;;23.03;57.97;98084.69;1639612;86;21017;-68
2022/06/21 09:21:55;;;;;;;2.60;0.70;;;;;;;25.35;51.81;98048.57;1664013;86;21035;-67
2022/06/21 09:24:44;;;;;;;0.70;0.70;;;;;;;26.86;45.62;98046.80;1580606;88;21127;-70
2022/06/21 09:27:35;;;;;;;2.67;0.75;;;;;;;27.27;43.78;98047.94;1618549;88;21498;-72
2022/06/21 09:30:18;;;;;;;1.70;0.57;;;;;;;28.97;40.75;98043.28;1655902;86;21423;-68
2022/06/21 09:32:57;;;;;;;1.95;0.90;;;;;;;31.37;35.44;98032.89;1668671;85;20996;-69
2022/06/21 09:35:41;;;;;;;1.20;0.80;;;;;;;33.65;31.83;98034.22;1668791;86;20957;-70
2022/06/21 09:38:32;;;;;;;2.02;0.90;;;;;;;35.56;27.75;98031.55;1669118;85;21474;-66
2022/06/21 09:41:04;;;;;;;2.05;1.07;;;;;;;37.21;25.87;98031.02;1669022;86;20881;-72
2022/06/21 09:43:51;;;;;;;2.62;0.60;;;;;;;38.70;22.51;98031.86;1671284;84;20971;-69
2022/06/21 09:46:46;;;;;;;1.57;0.60;;;;;;;39.36;20.11;98022.80;1682025;84;21604;-68
2022/06/21 09:49:45;;;;;;;2.07;0.67;;;;;;;40.01;19.71;98008.55;1682439;84;20955;-71
2022/06/21 09:52:23;;;;;;;2.02;0.72;;;;;;;39.51;18.43;98018.84;1682145;84;21514;-66
2022/06/21 09:55:08;;;;;;;0.90;0.85;;;;;;;37.26;19.93;98033.45;1682086;84;21497;-68
2022/06/21 09:57:55;;;;;;;4.72;1.00;;;;;;;36.38;21.48;98021.98;1682089;84;21144;-69
2022/06/21 10:00:42;;;;;;;1.60;0.95;;;;;;;36.17;21.67;98015.56;1682109;84;21497;-66
2022/06/21 10:03:49;;;;;;;5.70;0.95;;;;;;;36.16;21.91;98030.59;1682271;84;20956;-67
2022/06/21 10:06:36;;;;;;;1.00;0.70;;;;;;;36.51;21.47;98019.23;1682304;84;21007;-71
2022/06/21 10:09:27;;;;;;;5.00;1.50;;;;;;;36.38;21.15;98007.56;1644052;84;20991;-67
2022/06/21 10:12:47;;;;;;;0.93;0.90;;;;;;;35.21;22.22;98018.64;1682286;84;21239;-68
2022/06/21 10:15:34;;;;;;;2.25;0.70;;;;;;;33.87;22.60;98026.69;1682166;84;21003;-67
2022/06/21 10:18:25;;;;;;;1.75;0.70;;;;;;;32.33;24.33;98045.36;1652418;85;21438;-72
2022/06/21 10:21:17;;;;;;;0.82;0.55;;;;;;;31.31;25.49;98051.56;1682277;84;20960;-66
2022/06/21 10:24:22;;;;;;;4.85;0.82;;;;;;;30.54;26.06;98045.36;1654784;84;21008;-66
2022/06/21 10:27:16;;;;;;;0.98;0.80;;;;;;;29.80;26.50;98043.77;1682239;84;21156;-67
2022/06/21 10:30:31;;;;;;;3.83;0.95;;;;;;;29.06;26.85;98053.67;1682136;84;20951;-71
2022/06/21 10:33:06;;;;;;;2.08;0.78;;;;;;;28.30;27.55;98058.52;1682141;84;20975;-67
2022/06/21 10:36:07;;;;;;;3.83;1.00;;;;;;;27.71;28.57;98055.28;1682543;84;20999;-68
2022/06/21 10:38:53;;;;;;;3.27;1.07;;;;;;;27.31;29.77;98052.23;1682279;84;21003;-67
2022/06/21 10:41:40;;;;;;;1.80;0.98;;;;;;;27.02;31.07;98053.24;1682213;84;22634;-70
2022/06/21 10:44:30;;;;;;;3.37;1.02;;;;;;;26.91;30.94;98034.40;1642168;85;20988;-67
2022/06/21 10:50:22;;;;;;;1.50;1.30;;;;;;;26.71;30.70;98029.41;1711690;83;21090;-66
2022/06/21 10:53:12;;;;;;;1.67;1.10;;;;;;;26.53;30.38;98029.03;1714888;83;20964;-69
2022/06/21 10:59:24;;;;;;;1.10;0.95;;;;;;;26.30;32.05;98028.19;1715098;83;21027;-67
2022/06/21 11:02:05;;;;;;;3.02;1.17;;;;;;;26.25;31.04;98031.00;1714975;83;20976;-66
2022/06/21 11:04:56;;;;;;;0.98;0.90;;;;;;;26.02;31.06;98035.33;1714974;83;20958;-67
2022/06/21 11:07:51;;;;;;;3.58;1.10;;;;;;;25.85;31.56;98029.67;1686338;83;21004;-71
2022/06/21 11:10:27;;;;;;;4.67;0.90;;;;;;;25.75;31.77;98018.44;1695379;83;21784;-67
2022/06/21 11:12:56;;;;;;;0.82;0.82;;;;;;;25.60;30.92;98024.97;1714382;83;20984;-67
2022/06/21 11:16:08;;;;;;;7.08;1.15;;;;;;;25.50;30.34;98024.36;1714898;83;21181;-68
2022/06/21 11:18:49;;;;;;;0.85;0.82;;;;;;;25.38;29.93;98026.75;1715024;83;21004;-69
2022/06/21 11:21:30;;;;;;;4.15;0.82;;;;;;;25.32;29.86;98035.56;1688878;83;21050;-66
2022/06/21 11:24:03;;;;;;;1.67;0.70;;;;;;;25.29;30.50;98025.84;1713932;83;21332;-65
2022/06/21 11:26:43;;;;;;;1.45;0.82;;;;;;;25.34;30.92;98033.34;1705692;83;21488;-67
2022/06/21 11:29:22;;;;;;;3.62;1.15;;;;;;;25.33;30.58;98039.91;1684889;85;20940;-67
2022/06/21 11:32:16;;;;;;;3.75;1.20;;;;;;;25.33;30.72;98042.63;1711508;83;20964;-67
2022/06/21 11:35:03;;;;;;;0.70;0.70;;;;;;;25.37;31.99;98030.59;1711446;83;21507;-68
2022/06/21 11:37:55;;;;;;;1.70;0.55;;;;;;;25.30;31.97;98024.72;1709279;83;21240;-71
2022/06/21 11:40:47;;;;;;;1.45;0.70;;;;;;;25.10;30.61;98029.44;1714877;83;21583;-67
2022/06/21 11:43:43;;;;;;;2.33;0.72;;;;;;;24.88;31.78;98039.32;1702880;83;21003;-70
2022/06/21 11:46:31;;;;;;;3.00;1.10;;;;;;;24.78;31.84;98025.34;1714879;83;20917;-71
2022/06/21 11:49:28;;;;;;;4.30;1.02;;;;;;;24.70;31.72;98027.34;1712305;82;20926;-67
2022/06/21 11:52:35;;;;;;;1.70;0.90;;;;;;;24.66;32.76;98018.72;1733304;82;21172;-67
2022/06/21 11:55:46;;;;;;;4.25;1.00;;;;;;;24.64;31.95;98020.36;1733032;82;21547;-67
2022/06/21 11:58:42;;;;;;;2.80;0.90;;;;;;;24.65;32.02;98025.25;1732450;82;21560;-70
2022/06/21 12:01:44;;;;;;;1.98;0.98;;;;;;;24.79;32.29;98015.28;1733066;82;20921;-67
2022/06/21 12:04:56;;;;;;;1.72;1.00;;;;;;;24.92;32.40;98009.89;1732426;82;20973;-67
2022/06/21 12:07:37;;;;;;;3.10;1.00;;;;;;;24.98;32.38;97998.34;1719147;82;21140;-70
2022/06/21 12:10:23;;;;;;;2.12;1.20;;;;;;;24.89;31.70;97992.80;1732783;82;21041;-67
2022/06/21 12:13:02;;;;;;;0.93;0.93;;;;;;;24.73;32.19;98005.55;1733128;82;21559;-67
2022/06/21 12:15:55;;;;;;;1.02;0.90;;;;;;;24.60;32.25;98003.58;1732934;82;20910;-66
2022/06/21 12:18:25;;;;;;;2.25;0.95;;;;;;;24.51;31.87;97998.00;1733222;82;20989;-69
2022/06/21 12:21:07;;;;;;;2.70;0.80;;;;;;;24.42;31.91;98002.50;1733054;82;21575;-66
2022/06/21 12:23:41;;;;;;;1.37;0.50;;;;;;;24.33;32.19;97998.82;1732949;82;21541;-68
2022/06/21 12:26:14;;;;;;;1.70;0.90;;;;;;;24.26;32.59;97986.16;1733107;82;21412;-67
2022/06/21 12:28:41;;;;;;;2.95;0.80;;;;;;;24.22;32.24;97988.65;1733174;82;20922;-69
2022/06/21 12:31:23;;;;;;;1.07;0.88;;;;;;;24.18;32.00;97986.27;1733073;82;20959;-67
2022/06/21 12:33:55;;;;;;;3.02;1.10;;;;;;;24.22;32.00;97985.94;1733154;82;21266;-66
2022/06/21 12:36:36;;;;;;;2.65;1.10;;;;;;;24.30;32.48;97956.73;1728370;82;21025;-67
2022/06/21 12:39:27;;;;;;;3.42;0.88;;;;;;;24.39;31.70;97968.57;1724448;82;20934;-67
2022/06/21 12:42:10;;;;;;;2.85;0.75;;;;;;;24.54;30.97;97998.23;1733220;82;21043;-67
2022/06/21 12:45:01;;;;;;;2.30;0.95;;;;;;;24.62;31.30;97994.03;1731908;82;21449;-69
2022/06/21 12:47:36;;;;;;;2.55;0.80;;;;;;;24.64;31.38;97991.81;1732977;82;21276;-68
2022/06/21 12:50:52;;;;;;;6.43;1.27;;;;;;;24.63;31.00;98004.36;1733235;82;21484;-67
2022/06/21 12:53:50;;;;;;;2.67;0.88;;;;;;;24.61;31.53;98003.30;1733266;82;28271;-68